Seastreak Highlands — WDE4031 — position and weather

sailwx.info

Track history (hours):
 
Tides and Currents Weather Stations Pressure Air Temp Water Temp Dewpoint Dewpoint Depression Visibility Wind Speed Wind Dir Waves Ship Positions

Seastreak Highlands

Owner: Seastreak llc, atlantic highlands, NJ. More information available from US FCC via Universal Licensing System and Coast Guard Vessel Documentation Center.

Last reported at 2015-May-27 13:29 UTC. Time now 2015-May-27 13:52 UTC.
Position N 40°27' W 074°02'.

Length 44 m; draft 2 m.

Type: High speed craft. MMSI: 367347670.

Date/timePositionNaut miles runAvg speedWind from/ knotsBaromVisibWave heightAir tempDewpointWater temp
2015-May-27 13:29N 40°27' W 074°02'1616.9
2015-May-27 12:33N 40°43' W 074°02'1615.4
2015-May-27 11:33N 40°27' W 074°02'1615.8
2015-May-27 10:34N 40°43' W 074°02'1817.2
2015-May-27 09:32N 40°25' W 074°02'0 0.0
2015-May-25 22:09N 40°25' W 074°02'2 3.0
2015-May-25 21:32N 40°25' W 073°60'2020.6
2015-May-25 20:33N 40°45' W 073°58'20 9.9
2015-May-25 18:32N 40°25' W 073°60'0 0.0
2015-May-25 16:33N 40°25' W 073°60'0 0.0
2015-May-25 15:29N 40°25' W 073°60'0 0.0
2015-May-25 14:28N 40°25' W 073°60'0 0.1
2015-May-25 13:33N 40°25' W 073°60'  
2015-May-23 03:03N 40°25' W 074°01'811.9
2015-May-23 02:23N 40°33' W 074°02'1214.2
2015-May-23 01:34N 40°45' W 073°58'2019.5
2015-May-23 00:32N 40°25' W 073°60'0 0.0
2015-May-22 23:21N 40°25' W 073°60'1214.8
2015-May-22 22:34N 40°36' W 074°02'0 0.1
2015-May-22 21:33N 40°36' W 074°03'1 0.6
2015-May-22 20:31N 40°35' W 074°02'7 7.1
2015-May-22 19:34N 40°42' W 074°00'1714.9
2015-May-22 18:26N 40°25' W 074°02'1720.1
2015-May-22 17:33N 40°43' W 073°59'1510.3
2015-May-22 16:03N 40°27' W 074°01'1427.2
2015-May-22 15:34N 40°41' W 074°01'3 2.7
2015-May-22 14:34N 40°38' W 074°03'5 3.9
2015-May-22 13:14N 40°33' W 074°02'1217.5
2015-May-22 12:33N 40°45' W 073°58'1919.3
2015-May-22 11:33N 40°25' W 074°02'1 0.8
2015-May-22 10:30N 40°25' W 074°01'7 0.9
2015-May-22 02:26N 40°32' W 074°02'1314.7
2015-May-22 01:34N 40°45' W 073°58'2015.3
2015-May-22 00:15N 40°25' W 073°60'0 0.0
2015-May-21 23:21N 40°25' W 073°60'911.6
2015-May-21 22:33N 40°34' W 074°02'4 4.3
2015-May-21 21:34N 40°38' W 074°03'3 3.5
2015-May-21 20:33N 40°34' W 074°02'9 8.7
2015-May-21 19:34N 40°43' W 073°59'1717.2
2015-May-21 18:33N 40°25' W 074°01'1717.1
2015-May-21 17:34N 40°42' W 073°60'1413.8
2015-May-21 16:31N 40°28' W 074°01'1111.8
2015-May-21 15:33N 40°39' W 074°02'1 1.2
2015-May-21 14:33N 40°38' W 074°03'3 1.8
2015-May-21 13:08N 40°36' W 074°03'1016.6
2015-May-21 12:33N 40°45' W 073°58'20 9.8
2015-May-21 10:33N 40°25' W 074°02'0 0.0
2015-May-21 09:30N 40°25' W 074°02'0 0.0
2015-May-21 08:30N 40°25' W 074°02'0 0.0
2015-May-21 07:31N 40°25' W 074°02'0 0.0
2015-May-21 06:15N 40°25' W 074°02'0 0.0
2015-May-21 03:22N 40°25' W 074°02'0 0.0
2015-May-21 02:24N 40°25' W 074°02'0 0.0
2015-May-21 01:12N 40°25' W 074°02'0 0.1
2015-May-21 00:30N 40°25' W 074°02'0 0.3
2015-May-20 23:22N 40°25' W 074°02'810.2
2015-May-20 22:33N 40°34' W 074°02'4 4.1
2015-May-20 21:34N 40°38' W 074°03'5 4.6
2015-May-20 20:34N 40°33' W 074°02'8 8.3
2015-May-20 19:34N 40°41' W 074°00'1615.8
2015-May-20 18:31N 40°25' W 074°00'0 0.4
2015-May-20 17:30N 40°25' W 073°60'2 2.3
2015-May-20 16:30N 40°27' W 074°01'2 1.8
2015-May-20 15:12N 40°25' W 073°60'0 0.0
2015-May-20 14:32N 40°25' W 073°60'10 7.3
2015-May-20 13:08N 40°35' W 074°03'1018.3
2015-May-20 12:33N 40°45' W 073°58'20 9.3
2015-May-20 10:27N 40°25' W 074°02'1 0.1
2015-May-19 23:25N 40°25' W 074°01'1113.1
2015-May-19 22:33N 40°37' W 074°03'2 2.1
2015-May-19 21:33N 40°35' W 074°03'0 0.5
2015-May-19 20:33N 40°34' W 074°02'1010.4
2015-May-19 19:34N 40°44' W 073°58'1918.0
2015-May-19 18:31N 40°25' W 074°01'1717.4
2015-May-19 17:34N 40°42' W 074°00'1413.5
2015-May-19 16:33N 40°29' W 074°02'1110.9
2015-May-19 15:33N 40°39' W 074°02'6 5.9
2015-May-19 14:33N 40°45' W 073°58'7 6.7
2015-May-19 13:34N 40°39' W 074°02'2 2.3
2015-May-19 12:33N 40°36' W 074°03'2 1.5
2015-May-19 11:33N 40°35' W 074°02'10 0.9
2015-May-19 00:18N 40°25' W 074°02'2 1.6
2015-May-18 23:09N 40°25' W 073°60'0 0.0
2015-May-18 22:24N 40°25' W 073°60'2 0.5
2015-May-18 18:32N 40°25' W 074°02'1918.8
2015-May-18 17:34N 40°43' W 073°58'1514.7
2015-May-18 16:33N 40°29' W 074°02'1010.1
2015-May-18 15:34N 40°39' W 074°02'2 1.5
2015-May-18 14:34N 40°38' W 074°03'8 6.1
2015-May-18 13:14N 40°30' W 074°02'1522.7
2015-May-18 12:33N 40°45' W 073°58'19 9.4
2015-May-18 10:30N 40°25' W 074°01'  
Track history (hours):
 
Tides and Currents Weather Stations Pressure Air Temp Water Temp Dewpoint Dewpoint Depression Visibility Wind Speed Wind Dir Waves Ship Positions

Seastreak Highlands

Owner: Seastreak llc, atlantic highlands, NJ. More information available from US FCC via Universal Licensing System and Coast Guard Vessel Documentation Center.

Last reported at 2015-May-27 13:29 UTC. Time now 2015-May-27 13:52 UTC.
Position N 40°27' W 074°02'.

Length 44 m; draft 2 m.

Type: High speed craft. MMSI: 367347670.

Date/timePositionNaut miles runAvg speedWind from/ knotsBaromVisibWave heightAir tempDewpointWater temp
2015-May-27 13:29N 40°27' W 074°02'1616.9
2015-May-27 12:33N 40°43' W 074°02'1615.4
2015-May-27 11:33N 40°27' W 074°02'1615.8
2015-May-27 10:34N 40°43' W 074°02'1817.2
2015-May-27 09:32N 40°25' W 074°02'0 0.0
2015-May-25 22:09N 40°25' W 074°02'2 3.0
2015-May-25 21:32N 40°25' W 073°60'2020.6
2015-May-25 20:33N 40°45' W 073°58'20 9.9
2015-May-25 18:32N 40°25' W 073°60'0 0.0
2015-May-25 16:33N 40°25' W 073°60'0 0.0
2015-May-25 15:29N 40°25' W 073°60'0 0.0
2015-May-25 14:28N 40°25' W 073°60'0 0.1
2015-May-25 13:33N 40°25' W 073°60'  
2015-May-23 03:03N 40°25' W 074°01'811.9
2015-May-23 02:23N 40°33' W 074°02'1214.2
2015-May-23 01:34N 40°45' W 073°58'2019.5
2015-May-23 00:32N 40°25' W 073°60'0 0.0
2015-May-22 23:21N 40°25' W 073°60'1214.8
2015-May-22 22:34N 40°36' W 074°02'0 0.1
2015-May-22 21:33N 40°36' W 074°03'1 0.6
2015-May-22 20:31N 40°35' W 074°02'7 7.1
2015-May-22 19:34N 40°42' W 074°00'1714.9
2015-May-22 18:26N 40°25' W 074°02'1720.1
2015-May-22 17:33N 40°43' W 073°59'1510.3
2015-May-22 16:03N 40°27' W 074°01'1427.2
2015-May-22 15:34N 40°41' W 074°01'3 2.7
2015-May-22 14:34N 40°38' W 074°03'5 3.9
2015-May-22 13:14N 40°33' W 074°02'1217.5
2015-May-22 12:33N 40°45' W 073°58'1919.3
2015-May-22 11:33N 40°25' W 074°02'1 0.8
2015-May-22 10:30N 40°25' W 074°01'7 0.9
2015-May-22 02:26N 40°32' W 074°02'1314.7
2015-May-22 01:34N 40°45' W 073°58'2015.3
2015-May-22 00:15N 40°25' W 073°60'0 0.0
2015-May-21 23:21N 40°25' W 073°60'911.6
2015-May-21 22:33N 40°34' W 074°02'4 4.3
2015-May-21 21:34N 40°38' W 074°03'3 3.5
2015-May-21 20:33N 40°34' W 074°02'9 8.7
2015-May-21 19:34N 40°43' W 073°59'1717.2
2015-May-21 18:33N 40°25' W 074°01'1717.1
2015-May-21 17:34N 40°42' W 073°60'1413.8
2015-May-21 16:31N 40°28' W 074°01'1111.8
2015-May-21 15:33N 40°39' W 074°02'1 1.2
2015-May-21 14:33N 40°38' W 074°03'3 1.8
2015-May-21 13:08N 40°36' W 074°03'1016.6
2015-May-21 12:33N 40°45' W 073°58'20 9.8
2015-May-21 10:33N 40°25' W 074°02'0 0.0
2015-May-21 09:30N 40°25' W 074°02'0 0.0
2015-May-21 08:30N 40°25' W 074°02'0 0.0
2015-May-21 07:31N 40°25' W 074°02'0 0.0
2015-May-21 06:15N 40°25' W 074°02'0 0.0
2015-May-21 03:22N 40°25' W 074°02'0 0.0
2015-May-21 02:24N 40°25' W 074°02'0 0.0
2015-May-21 01:12N 40°25' W 074°02'0 0.1
2015-May-21 00:30N 40°25' W 074°02'0 0.3
2015-May-20 23:22N 40°25' W 074°02'810.2
2015-May-20 22:33N 40°34' W 074°02'4 4.1
2015-May-20 21:34N 40°38' W 074°03'5 4.6
2015-May-20 20:34N 40°33' W 074°02'8 8.3
2015-May-20 19:34N 40°41' W 074°00'1615.8
2015-May-20 18:31N 40°25' W 074°00'0 0.4
2015-May-20 17:30N 40°25' W 073°60'2 2.3
2015-May-20 16:30N 40°27' W 074°01'2 1.8
2015-May-20 15:12N 40°25' W 073°60'0 0.0
2015-May-20 14:32N 40°25' W 073°60'10 7.3
2015-May-20 13:08N 40°35' W 074°03'1018.3
2015-May-20 12:33N 40°45' W 073°58'20 9.3
2015-May-20 10:27N 40°25' W 074°02'1 0.1
2015-May-19 23:25N 40°25' W 074°01'1113.1
2015-May-19 22:33N 40°37' W 074°03'2 2.1
2015-May-19 21:33N 40°35' W 074°03'0 0.5
2015-May-19 20:33N 40°34' W 074°02'1010.4
2015-May-19 19:34N 40°44' W 073°58'1918.0
2015-May-19 18:31N 40°25' W 074°01'1717.4
2015-May-19 17:34N 40°42' W 074°00'1413.5
2015-May-19 16:33N 40°29' W 074°02'1110.9
2015-May-19 15:33N 40°39' W 074°02'6 5.9
2015-May-19 14:33N 40°45' W 073°58'7 6.7
2015-May-19 13:34N 40°39' W 074°02'2 2.3
2015-May-19 12:33N 40°36' W 074°03'2 1.5
2015-May-19 11:33N 40°35' W 074°02'10 0.9
2015-May-19 00:18N 40°25' W 074°02'2 1.6
2015-May-18 23:09N 40°25' W 073°60'0 0.0
2015-May-18 22:24N 40°25' W 073°60'2 0.5
2015-May-18 18:32N 40°25' W 074°02'1918.8
2015-May-18 17:34N 40°43' W 073°58'1514.7
2015-May-18 16:33N 40°29' W 074°02'1010.1
2015-May-18 15:34N 40°39' W 074°02'2 1.5
2015-May-18 14:34N 40°38' W 074°03'8 6.1
2015-May-18 13:14N 40°30' W 074°02'1522.7
2015-May-18 12:33N 40°45' W 073°58'19 9.4
2015-May-18 10:30N 40°25' W 074°01'  

Dump ship's entire track history